Terminal Aerodrome Forecast
Issued by NWS

Home | Current Version | Previous Version | Graphics & Text | Print | Product List | Glossary On
Versions: 1 2 3 4 5 6 7 8 9 10 11 12 13 14 15 16 17 18 19 20 21 22 23 24 25 26 27 28 29 30 31 32 33
000
FTUS43 KLOT 270859 AAA
TAFORD
TAF AMD
KORD 270859Z 2709/2812 01012KT 3SM -SHSN OVC025
      TEMPO 2709/2710 2SM -SHSN
     FM271130 01012KT P6SM -SHSN BKN025 OVC040
     FM271300 01014G20KT P6SM BKN040
     FM271800 01011KT P6SM BKN040
     FM272100 04012KT P6SM SCT040
     FM280200 05007KT P6SM BKN035=

USA.gov is the U.S. government's official web portal to all federal, state and local government web resources and services.